sensor_id;sensor_type;location;lat;lon;timestamp;P1;durP1;ratioP1;P2;durP2;ratioP2
4102;SDS011;2065;49.790;9.620;2023-02-11T00:01:19;39.97;;;20.60;;
4102;SDS011;2065;49.790;9.620;2023-02-11T00:03:49;44.10;;;23.13;;
4102;SDS011;2065;49.790;9.620;2023-02-11T00:06:16;47.13;;;22.80;;
4102;SDS011;2065;49.790;9.620;2023-02-11T00:08:44;40.43;;;21.33;;
4102;SDS011;2065;49.790;9.620;2023-02-11T00:11:13;43.73;;;21.23;;
4102;SDS011;2065;49.790;9.620;2023-02-11T00:13:41;40.23;;;23.17;;
4102;SDS011;2065;49.790;9.620;2023-02-11T00:16:11;39.20;;;19.60;;
4102;SDS011;2065;49.790;9.620;2023-02-11T00:18:39;41.97;;;21.47;;
4102;SDS011;2065;49.790;9.620;2023-02-11T00:21:06;39.37;;;22.50;;
4102;SDS011;2065;49.790;9.620;2023-02-11T00:23:33;38.67;;;20.60;;
4102;SDS011;2065;49.790;9.620;2023-02-11T00:26:01;35.13;;;20.33;;
4102;SDS011;2065;49.790;9.620;2023-02-11T00:28:29;43.87;;;20.47;;
4102;SDS011;2065;49.790;9.620;2023-02-11T00:30:56;38.63;;;20.27;;
4102;SDS011;2065;49.790;9.620;2023-02-11T00:33:25;39.37;;;20.07;;
4102;SDS011;2065;49.790;9.620;2023-02-11T00:35:52;46.47;;;21.13;;
4102;SDS011;2065;49.790;9.620;2023-02-11T00:38:19;45.60;;;21.50;;
4102;SDS011;2065;49.790;9.620;2023-02-11T00:40:47;44.90;;;22.47;;
4102;SDS011;2065;49.790;9.620;2023-02-11T00:43:14;41.83;;;21.43;;
4102;SDS011;2065;49.790;9.620;2023-02-11T00:45:43;36.73;;;20.40;;
4102;SDS011;2065;49.790;9.620;2023-02-11T00:48:10;46.50;;;23.53;;
4102;SDS011;2065;49.790;9.620;2023-02-11T00:50:37;38.30;;;20.93;;
4102;SDS011;2065;49.790;9.620;2023-02-11T00:53:05;39.77;;;22.10;;
4102;SDS011;2065;49.790;9.620;2023-02-11T00:55:32;42.87;;;23.43;;
4102;SDS011;2065;49.790;9.620;2023-02-11T00:57:59;37.87;;;20.80;;
4102;SDS011;2065;49.790;9.620;2023-02-11T01:00:27;40.43;;;23.50;;
4102;SDS011;2065;49.790;9.620;2023-02-11T01:02:55;48.13;;;21.50;;
4102;SDS011;2065;49.790;9.620;2023-02-11T01:05:22;40.17;;;23.17;;
4102;SDS011;2065;49.790;9.620;2023-02-11T01:07:49;38.33;;;22.13;;
4102;SDS011;2065;49.790;9.620;2023-02-11T01:10:16;41.20;;;23.03;;
4102;SDS011;2065;49.790;9.620;2023-02-11T01:12:44;41.10;;;23.60;;
4102;SDS011;2065;49.790;9.620;2023-02-11T01:15:11;47.77;;;23.93;;
4102;SDS011;2065;49.790;9.620;2023-02-11T01:17:40;50.03;;;27.60;;
4102;SDS011;2065;49.790;9.620;2023-02-11T01:20:11;52.97;;;25.83;;
4102;SDS011;2065;49.790;9.620;2023-02-11T01:22:41;51.13;;;24.97;;
4102;SDS011;2065;49.790;9.620;2023-02-11T01:25:08;48.73;;;25.90;;
4102;SDS011;2065;49.790;9.620;2023-02-11T01:27:36;47.30;;;22.77;;
4102;SDS011;2065;49.790;9.620;2023-02-11T01:30:04;51.70;;;25.80;;
4102;SDS011;2065;49.790;9.620;2023-02-11T01:32:32;43.83;;;22.77;;
4102;SDS011;2065;49.790;9.620;2023-02-11T01:35:00;41.63;;;23.43;;
4102;SDS011;2065;49.790;9.620;2023-02-11T01:37:28;47.50;;;25.43;;
4102;SDS011;2065;49.790;9.620;2023-02-11T01:39:57;92.10;;;39.93;;
4102;SDS011;2065;49.790;9.620;2023-02-11T01:42:24;97.30;;;39.27;;
4102;SDS011;2065;49.790;9.620;2023-02-11T01:44:52;63.47;;;31.27;;
4102;SDS011;2065;49.790;9.620;2023-02-11T01:47:20;69.03;;;28.30;;
4102;SDS011;2065;49.790;9.620;2023-02-11T01:49:49;49.67;;;25.67;;
4102;SDS011;2065;49.790;9.620;2023-02-11T01:52:21;38.43;;;24.63;;
4102;SDS011;2065;49.790;9.620;2023-02-11T01:54:53;50.50;;;25.20;;
4102;SDS011;2065;49.790;9.620;2023-02-11T01:57:42;40.10;;;19.80;;
4102;SDS011;2065;49.790;9.620;2023-02-11T02:00:12;45.93;;;23.20;;
4102;SDS011;2065;49.790;9.620;2023-02-11T02:02:46;42.90;;;21.33;;
4102;SDS011;2065;49.790;9.620;2023-02-11T02:05:20;46.00;;;21.47;;
4102;SDS011;2065;49.790;9.620;2023-02-11T02:07:59;38.57;;;21.67;;
4102;SDS011;2065;49.790;9.620;2023-02-11T02:10:31;43.73;;;23.30;;
4102;SDS011;2065;49.790;9.620;2023-02-11T02:13:00;49.87;;;23.07;;
4102;SDS011;2065;49.790;9.620;2023-02-11T02:15:28;50.30;;;22.80;;
4102;SDS011;2065;49.790;9.620;2023-02-11T02:17:58;44.23;;;23.10;;
4102;SDS011;2065;49.790;9.620;2023-02-11T02:26:49;35.60;;;19.53;;
4102;SDS011;2065;49.790;9.620;2023-02-11T02:29:29;45.40;;;22.03;;
4102;SDS011;2065;49.790;9.620;2023-02-11T02:32:19;34.27;;;19.77;;
4102;SDS011;2065;49.790;9.620;2023-02-11T02:35:09;39.93;;;18.63;;
4102;SDS011;2065;49.790;9.620;2023-02-11T02:37:46;33.53;;;18.33;;
4102;SDS011;2065;49.790;9.620;2023-02-11T02:40:17;33.73;;;16.17;;
4102;SDS011;2065;49.790;9.620;2023-02-11T02:42:47;37.27;;;18.00;;
4102;SDS011;2065;49.790;9.620;2023-02-11T02:45:16;34.97;;;17.60;;
4102;SDS011;2065;49.790;9.620;2023-02-11T02:47:46;31.30;;;16.80;;
4102;SDS011;2065;49.790;9.620;2023-02-11T02:50:13;53.77;;;24.90;;
4102;SDS011;2065;49.790;9.620;2023-02-11T02:52:45;38.43;;;20.67;;
4102;SDS011;2065;49.790;9.620;2023-02-11T02:58:29;34.97;;;18.90;;
4102;SDS011;2065;49.790;9.620;2023-02-11T03:01:20;33.57;;;16.37;;
4102;SDS011;2065;49.790;9.620;2023-02-11T03:03:58;37.37;;;16.60;;
4102;SDS011;2065;49.790;9.620;2023-02-11T03:06:32;30.80;;;17.57;;
4102;SDS011;2065;49.790;9.620;2023-02-11T03:09:05;33.20;;;15.97;;
4102;SDS011;2065;49.790;9.620;2023-02-11T03:11:37;34.07;;;16.50;;
4102;SDS011;2065;49.790;9.620;2023-02-11T03:14:07;25.23;;;16.87;;
4102;SDS011;2065;49.790;9.620;2023-02-11T03:16:36;34.87;;;16.90;;
4102;SDS011;2065;49.790;9.620;2023-02-11T03:19:07;30.43;;;17.77;;
4102;SDS011;2065;49.790;9.620;2023-02-11T03:21:39;31.57;;;16.70;;
4102;SDS011;2065;49.790;9.620;2023-02-11T03:24:09;27.10;;;14.40;;
4102;SDS011;2065;49.790;9.620;2023-02-11T03:26:41;28.87;;;14.00;;
4102;SDS011;2065;49.790;9.620;2023-02-11T03:29:14;23.70;;;12.03;;
4102;SDS011;2065;49.790;9.620;2023-02-11T03:31:46;27.57;;;14.13;;
4102;SDS011;2065;49.790;9.620;2023-02-11T03:34:24;30.37;;;14.47;;
4102;SDS011;2065;49.790;9.620;2023-02-11T03:36:56;45.37;;;19.13;;
4102;SDS011;2065;49.790;9.620;2023-02-11T03:39:28;44.73;;;23.37;;
4102;SDS011;2065;49.790;9.620;2023-02-11T03:42:00;61.97;;;28.00;;
4102;SDS011;2065;49.790;9.620;2023-02-11T03:44:30;50.80;;;24.13;;
4102;SDS011;2065;49.790;9.620;2023-02-11T03:47:01;43.43;;;23.73;;
4102;SDS011;2065;49.790;9.620;2023-02-11T03:49:32;44.53;;;22.97;;
4102;SDS011;2065;49.790;9.620;2023-02-11T03:52:01;32.83;;;20.70;;
4102;SDS011;2065;49.790;9.620;2023-02-11T03:54:30;39.30;;;19.40;;
4102;SDS011;2065;49.790;9.620;2023-02-11T03:56:58;41.00;;;20.87;;
4102;SDS011;2065;49.790;9.620;2023-02-11T03:59:26;28.23;;;14.40;;
4102;SDS011;2065;49.790;9.620;2023-02-11T04:01:54;27.73;;;13.93;;
4102;SDS011;2065;49.790;9.620;2023-02-11T04:04:21;33.73;;;14.13;;
4102;SDS011;2065;49.790;9.620;2023-02-11T04:06:50;33.97;;;18.87;;
4102;SDS011;2065;49.790;9.620;2023-02-11T04:09:17;32.80;;;19.00;;
4102;SDS011;2065;49.790;9.620;2023-02-11T04:11:44;33.37;;;17.17;;
4102;SDS011;2065;49.790;9.620;2023-02-11T04:14:11;31.57;;;17.10;;
4102;SDS011;2065;49.790;9.620;2023-02-11T04:16:37;36.90;;;16.33;;
4102;SDS011;2065;49.790;9.620;2023-02-11T04:19:04;30.53;;;17.00;;
4102;SDS011;2065;49.790;9.620;2023-02-11T04:21:32;27.77;;;14.63;;
4102;SDS011;2065;49.790;9.620;2023-02-11T04:24:00;26.53;;;16.30;;
4102;SDS011;2065;49.790;9.620;2023-02-11T04:26:27;30.67;;;15.87;;
4102;SDS011;2065;49.790;9.620;2023-02-11T04:28:54;28.10;;;15.53;;
4102;SDS011;2065;49.790;9.620;2023-02-11T04:31:21;25.80;;;14.77;;
4102;SDS011;2065;49.790;9.620;2023-02-11T04:33:47;27.87;;;15.93;;
4102;SDS011;2065;49.790;9.620;2023-02-11T04:36:14;27.30;;;15.20;;
4102;SDS011;2065;49.790;9.620;2023-02-11T04:38:41;31.50;;;17.40;;
4102;SDS011;2065;49.790;9.620;2023-02-11T04:41:09;23.03;;;15.90;;
4102;SDS011;2065;49.790;9.620;2023-02-11T04:43:36;28.10;;;16.97;;
4102;SDS011;2065;49.790;9.620;2023-02-11T04:46:03;30.80;;;16.30;;
4102;SDS011;2065;49.790;9.620;2023-02-11T04:48:30;37.60;;;17.27;;
4102;SDS011;2065;49.790;9.620;2023-02-11T04:50:59;32.90;;;18.27;;
4102;SDS011;2065;49.790;9.620;2023-02-11T04:53:26;41.27;;;17.43;;
4102;SDS011;2065;49.790;9.620;2023-02-11T04:55:53;32.87;;;17.20;;
4102;SDS011;2065;49.790;9.620;2023-02-11T04:58:21;26.60;;;15.50;;
4102;SDS011;2065;49.790;9.620;2023-02-11T05:00:48;30.17;;;16.40;;
4102;SDS011;2065;49.790;9.620;2023-02-11T05:03:16;26.70;;;15.23;;
4102;SDS011;2065;49.790;9.620;2023-02-11T05:05:43;25.23;;;16.03;;
4102;SDS011;2065;49.790;9.620;2023-02-11T05:08:10;29.93;;;14.37;;
4102;SDS011;2065;49.790;9.620;2023-02-11T05:10:37;31.30;;;15.40;;
4102;SDS011;2065;49.790;9.620;2023-02-11T05:13:04;24.70;;;13.40;;
4102;SDS011;2065;49.790;9.620;2023-02-11T05:15:32;38.77;;;15.47;;
4102;SDS011;2065;49.790;9.620;2023-02-11T05:17:59;27.83;;;14.73;;
4102;SDS011;2065;49.790;9.620;2023-02-11T05:20:26;23.13;;;13.33;;
4102;SDS011;2065;49.790;9.620;2023-02-11T05:22:53;26.30;;;14.50;;
4102;SDS011;2065;49.790;9.620;2023-02-11T05:25:20;23.93;;;13.20;;
4102;SDS011;2065;49.790;9.620;2023-02-11T05:27:47;23.20;;;12.17;;
4102;SDS011;2065;49.790;9.620;2023-02-11T05:30:14;23.13;;;13.27;;
4102;SDS011;2065;49.790;9.620;2023-02-11T05:32:42;23.73;;;12.40;;
4102;SDS011;2065;49.790;9.620;2023-02-11T05:35:09;23.93;;;12.70;;
4102;SDS011;2065;49.790;9.620;2023-02-11T05:37:36;22.60;;;12.27;;
4102;SDS011;2065;49.790;9.620;2023-02-11T05:40:03;27.23;;;13.80;;
4102;SDS011;2065;49.790;9.620;2023-02-11T05:42:30;24.90;;;12.03;;
4102;SDS011;2065;49.790;9.620;2023-02-11T05:44:58;26.50;;;12.70;;
4102;SDS011;2065;49.790;9.620;2023-02-11T05:47:25;24.13;;;14.73;;
4102;SDS011;2065;49.790;9.620;2023-02-11T05:49:54;29.80;;;15.33;;
4102;SDS011;2065;49.790;9.620;2023-02-11T05:52:21;26.33;;;13.10;;
4102;SDS011;2065;49.790;9.620;2023-02-11T05:54:49;27.47;;;13.27;;
4102;SDS011;2065;49.790;9.620;2023-02-11T05:57:16;24.70;;;12.57;;
4102;SDS011;2065;49.790;9.620;2023-02-11T05:59:43;25.87;;;14.10;;
4102;SDS011;2065;49.790;9.620;2023-02-11T06:02:11;23.17;;;12.77;;
4102;SDS011;2065;49.790;9.620;2023-02-11T06:04:38;27.50;;;14.27;;
4102;SDS011;2065;49.790;9.620;2023-02-11T06:07:07;24.50;;;12.90;;
4102;SDS011;2065;49.790;9.620;2023-02-11T06:09:33;27.43;;;14.30;;
4102;SDS011;2065;49.790;9.620;2023-02-11T06:12:02;26.00;;;14.27;;
4102;SDS011;2065;49.790;9.620;2023-02-11T06:14:30;27.03;;;12.90;;
4102;SDS011;2065;49.790;9.620;2023-02-11T06:16:58;25.53;;;12.87;;
4102;SDS011;2065;49.790;9.620;2023-02-11T06:19:25;26.97;;;14.60;;
4102;SDS011;2065;49.790;9.620;2023-02-11T06:21:52;26.60;;;14.07;;
4102;SDS011;2065;49.790;9.620;2023-02-11T06:24:20;22.43;;;14.40;;
4102;SDS011;2065;49.790;9.620;2023-02-11T06:26:47;39.17;;;16.50;;
4102;SDS011;2065;49.790;9.620;2023-02-11T06:29:14;25.83;;;15.73;;
4102;SDS011;2065;49.790;9.620;2023-02-11T06:31:41;28.13;;;15.60;;
4102;SDS011;2065;49.790;9.620;2023-02-11T06:34:08;28.97;;;14.87;;
4102;SDS011;2065;49.790;9.620;2023-02-11T06:36:37;29.97;;;14.80;;
4102;SDS011;2065;49.790;9.620;2023-02-11T06:39:05;23.90;;;13.77;;
4102;SDS011;2065;49.790;9.620;2023-02-11T06:41:33;27.90;;;15.47;;
4102;SDS011;2065;49.790;9.620;2023-02-11T06:44:00;27.83;;;15.20;;
4102;SDS011;2065;49.790;9.620;2023-02-11T06:46:27;31.33;;;17.20;;
4102;SDS011;2065;49.790;9.620;2023-02-11T06:48:54;27.80;;;16.37;;
4102;SDS011;2065;49.790;9.620;2023-02-11T06:51:21;28.30;;;15.53;;
4102;SDS011;2065;49.790;9.620;2023-02-11T06:53:48;28.93;;;15.27;;
4102;SDS011;2065;49.790;9.620;2023-02-11T06:56:16;26.93;;;14.60;;
4102;SDS011;2065;49.790;9.620;2023-02-11T06:58:46;33.40;;;16.40;;
4102;SDS011;2065;49.790;9.620;2023-02-11T07:01:17;33.30;;;17.07;;
4102;SDS011;2065;49.790;9.620;2023-02-11T07:03:44;32.47;;;16.13;;
4102;SDS011;2065;49.790;9.620;2023-02-11T07:06:12;34.53;;;17.30;;
4102;SDS011;2065;49.790;9.620;2023-02-11T07:08:41;31.83;;;17.10;;
4102;SDS011;2065;49.790;9.620;2023-02-11T07:11:10;43.37;;;21.47;;
4102;SDS011;2065;49.790;9.620;2023-02-11T07:13:38;53.77;;;22.93;;
4102;SDS011;2065;49.790;9.620;2023-02-11T07:16:07;42.97;;;20.70;;
4102;SDS011;2065;49.790;9.620;2023-02-11T07:18:37;47.37;;;24.20;;
4102;SDS011;2065;49.790;9.620;2023-02-11T07:21:04;34.70;;;18.90;;
4102;SDS011;2065;49.790;9.620;2023-02-11T07:23:32;34.30;;;16.97;;
4102;SDS011;2065;49.790;9.620;2023-02-11T07:26:01;26.20;;;16.17;;
4102;SDS011;2065;49.790;9.620;2023-02-11T07:28:29;35.70;;;16.90;;
4102;SDS011;2065;49.790;9.620;2023-02-11T07:30:56;35.80;;;16.83;;
4102;SDS011;2065;49.790;9.620;2023-02-11T07:33:24;28.03;;;15.33;;
4102;SDS011;2065;49.790;9.620;2023-02-11T07:35:51;29.37;;;16.20;;
4102;SDS011;2065;49.790;9.620;2023-02-11T07:38:18;37.27;;;17.20;;
4102;SDS011;2065;49.790;9.620;2023-02-11T07:40:45;30.30;;;16.40;;
4102;SDS011;2065;49.790;9.620;2023-02-11T07:43:12;27.83;;;16.07;;
4102;SDS011;2065;49.790;9.620;2023-02-11T07:45:39;29.20;;;16.20;;
4102;SDS011;2065;49.790;9.620;2023-02-11T07:48:06;35.17;;;15.80;;
4102;SDS011;2065;49.790;9.620;2023-02-11T07:50:34;32.70;;;16.63;;
4102;SDS011;2065;49.790;9.620;2023-02-11T07:53:01;31.53;;;16.37;;
4102;SDS011;2065;49.790;9.620;2023-02-11T07:55:28;30.03;;;15.70;;
4102;SDS011;2065;49.790;9.620;2023-02-11T07:57:56;34.03;;;15.43;;
4102;SDS011;2065;49.790;9.620;2023-02-11T08:00:23;32.30;;;15.37;;
4102;SDS011;2065;49.790;9.620;2023-02-11T08:02:50;30.67;;;16.50;;
4102;SDS011;2065;49.790;9.620;2023-02-11T08:05:16;32.03;;;15.57;;
4102;SDS011;2065;49.790;9.620;2023-02-11T08:07:45;32.07;;;14.20;;
4102;SDS011;2065;49.790;9.620;2023-02-11T08:10:13;34.13;;;17.07;;
4102;SDS011;2065;49.790;9.620;2023-02-11T08:12:40;26.97;;;15.33;;
4102;SDS011;2065;49.790;9.620;2023-02-11T08:15:08;32.17;;;17.17;;
4102;SDS011;2065;49.790;9.620;2023-02-11T08:17:35;24.70;;;14.57;;
4102;SDS011;2065;49.790;9.620;2023-02-11T08:20:03;35.00;;;16.60;;
4102;SDS011;2065;49.790;9.620;2023-02-11T08:22:31;30.57;;;16.00;;
4102;SDS011;2065;49.790;9.620;2023-02-11T08:25:00;32.23;;;14.97;;
4102;SDS011;2065;49.790;9.620;2023-02-11T08:27:27;27.17;;;13.87;;
4102;SDS011;2065;49.790;9.620;2023-02-11T08:29:54;34.40;;;15.37;;
4102;SDS011;2065;49.790;9.620;2023-02-11T08:32:23;29.27;;;15.83;;
4102;SDS011;2065;49.790;9.620;2023-02-11T08:34:51;28.93;;;15.37;;
4102;SDS011;2065;49.790;9.620;2023-02-11T08:37:18;27.87;;;14.47;;
4102;SDS011;2065;49.790;9.620;2023-02-11T08:39:47;23.93;;;15.10;;
4102;SDS011;2065;49.790;9.620;2023-02-11T08:42:15;32.07;;;15.97;;
4102;SDS011;2065;49.790;9.620;2023-02-11T08:44:42;28.50;;;14.87;;
4102;SDS011;2065;49.790;9.620;2023-02-11T08:47:09;29.23;;;16.93;;
4102;SDS011;2065;49.790;9.620;2023-02-11T08:49:36;26.10;;;15.27;;
4102;SDS011;2065;49.790;9.620;2023-02-11T08:52:05;27.80;;;15.93;;
4102;SDS011;2065;49.790;9.620;2023-02-11T08:54:32;31.07;;;18.00;;
4102;SDS011;2065;49.790;9.620;2023-02-11T08:56:59;107.13;;;54.00;;
4102;SDS011;2065;49.790;9.620;2023-02-11T08:59:28;35.97;;;18.33;;
4102;SDS011;2065;49.790;9.620;2023-02-11T09:01:55;31.87;;;15.87;;
4102;SDS011;2065;49.790;9.620;2023-02-11T09:04:22;28.43;;;15.87;;
4102;SDS011;2065;49.790;9.620;2023-02-11T09:06:49;22.90;;;14.60;;
4102;SDS011;2065;49.790;9.620;2023-02-11T09:09:16;32.90;;;16.93;;
4102;SDS011;2065;49.790;9.620;2023-02-11T09:11:43;23.70;;;14.57;;
4102;SDS011;2065;49.790;9.620;2023-02-11T09:14:14;26.70;;;15.03;;
4102;SDS011;2065;49.790;9.620;2023-02-11T09:16:45;26.80;;;15.73;;
4102;SDS011;2065;49.790;9.620;2023-02-11T09:19:12;31.70;;;15.80;;
4102;SDS011;2065;49.790;9.620;2023-02-11T09:21:39;34.63;;;16.90;;
4102;SDS011;2065;49.790;9.620;2023-02-11T09:24:06;29.40;;;15.17;;
4102;SDS011;2065;49.790;9.620;2023-02-11T09:26:34;30.10;;;15.10;;
4102;SDS011;2065;49.790;9.620;2023-02-11T09:29:02;24.87;;;16.00;;
4102;SDS011;2065;49.790;9.620;2023-02-11T09:31:30;23.73;;;13.90;;
4102;SDS011;2065;49.790;9.620;2023-02-11T09:34:00;25.60;;;13.90;;
4102;SDS011;2065;49.790;9.620;2023-02-11T09:36:29;26.47;;;14.50;;
4102;SDS011;2065;49.790;9.620;2023-02-11T09:38:58;27.63;;;14.43;;
4102;SDS011;2065;49.790;9.620;2023-02-11T09:41:32;23.57;;;14.17;;
4102;SDS011;2065;49.790;9.620;2023-02-11T09:44:05;28.60;;;14.90;;
4102;SDS011;2065;49.790;9.620;2023-02-11T09:46:35;23.17;;;13.10;;
4102;SDS011;2065;49.790;9.620;2023-02-11T09:49:09;27.10;;;14.30;;
4102;SDS011;2065;49.790;9.620;2023-02-11T09:51:45;24.27;;;14.10;;
4102;SDS011;2065;49.790;9.620;2023-02-11T09:54:16;24.90;;;14.67;;
4102;SDS011;2065;49.790;9.620;2023-02-11T09:56:48;31.43;;;15.37;;
4102;SDS011;2065;49.790;9.620;2023-02-11T09:59:15;25.63;;;14.20;;
4102;SDS011;2065;49.790;9.620;2023-02-11T10:01:44;22.77;;;14.10;;
4102;SDS011;2065;49.790;9.620;2023-02-11T10:04:18;21.23;;;13.93;;
4102;SDS011;2065;49.790;9.620;2023-02-11T10:06:58;25.23;;;14.40;;
4102;SDS011;2065;49.790;9.620;2023-02-11T10:09:38;29.97;;;15.87;;
4102;SDS011;2065;49.790;9.620;2023-02-11T10:12:16;30.03;;;15.20;;
4102;SDS011;2065;49.790;9.620;2023-02-11T10:14:59;26.53;;;14.30;;
4102;SDS011;2065;49.790;9.620;2023-02-11T10:17:35;28.40;;;15.50;;
4102;SDS011;2065;49.790;9.620;2023-02-11T10:20:19;27.37;;;15.80;;
4102;SDS011;2065;49.790;9.620;2023-02-11T10:22:51;28.83;;;15.27;;
4102;SDS011;2065;49.790;9.620;2023-02-11T10:25:20;27.93;;;16.30;;
4102;SDS011;2065;49.790;9.620;2023-02-11T10:27:50;29.60;;;15.87;;
4102;SDS011;2065;49.790;9.620;2023-02-11T10:30:20;31.13;;;14.50;;
4102;SDS011;2065;49.790;9.620;2023-02-11T10:32:53;28.53;;;16.23;;
4102;SDS011;2065;49.790;9.620;2023-02-11T10:35:26;28.63;;;15.07;;
4102;SDS011;2065;49.790;9.620;2023-02-11T10:37:53;32.33;;;17.10;;
4102;SDS011;2065;49.790;9.620;2023-02-11T10:40:21;29.13;;;16.73;;
4102;SDS011;2065;49.790;9.620;2023-02-11T10:42:50;24.93;;;16.00;;
4102;SDS011;2065;49.790;9.620;2023-02-11T10:45:21;29.90;;;15.53;;
4102;SDS011;2065;49.790;9.620;2023-02-11T10:47:52;28.73;;;14.70;;
4102;SDS011;2065;49.790;9.620;2023-02-11T10:50:24;27.53;;;13.73;;
4102;SDS011;2065;49.790;9.620;2023-02-11T10:52:57;32.07;;;17.40;;
4102;SDS011;2065;49.790;9.620;2023-02-11T10:55:38;30.80;;;17.23;;
4102;SDS011;2065;49.790;9.620;2023-02-11T10:58:20;25.83;;;15.10;;
4102;SDS011;2065;49.790;9.620;2023-02-11T11:00:50;28.40;;;15.60;;
4102;SDS011;2065;49.790;9.620;2023-02-11T11:03:19;25.90;;;13.57;;
4102;SDS011;2065;49.790;9.620;2023-02-11T11:05:51;34.03;;;18.10;;
4102;SDS011;2065;49.790;9.620;2023-02-11T11:08:21;23.83;;;14.93;;
4102;SDS011;2065;49.790;9.620;2023-02-11T11:10:48;26.80;;;15.00;;
4102;SDS011;2065;49.790;9.620;2023-02-11T11:13:29;27.20;;;14.40;;
4102;SDS011;2065;49.790;9.620;2023-02-11T11:18:50;30.00;;;16.97;;
4102;SDS011;2065;49.790;9.620;2023-02-11T11:21:20;27.23;;;14.77;;
4102;SDS011;2065;49.790;9.620;2023-02-11T11:23:50;27.60;;;14.80;;
4102;SDS011;2065;49.790;9.620;2023-02-11T11:26:21;29.70;;;16.50;;
4102;SDS011;2065;49.790;9.620;2023-02-11T11:28:51;30.97;;;17.20;;
4102;SDS011;2065;49.790;9.620;2023-02-11T11:31:21;27.00;;;14.27;;
4102;SDS011;2065;49.790;9.620;2023-02-11T11:33:51;30.63;;;17.07;;
4102;SDS011;2065;49.790;9.620;2023-02-11T11:36:22;29.13;;;16.17;;
4102;SDS011;2065;49.790;9.620;2023-02-11T11:38:57;32.80;;;17.00;;
4102;SDS011;2065;49.790;9.620;2023-02-11T11:41:29;28.60;;;15.70;;
4102;SDS011;2065;49.790;9.620;2023-02-11T11:43:59;30.47;;;16.40;;
4102;SDS011;2065;49.790;9.620;2023-02-11T11:46:30;35.50;;;17.43;;
4102;SDS011;2065;49.790;9.620;2023-02-11T11:49:12;29.00;;;17.13;;
4102;SDS011;2065;49.790;9.620;2023-02-11T11:51:53;30.00;;;16.40;;
4102;SDS011;2065;49.790;9.620;2023-02-11T11:54:25;24.40;;;15.00;;
4102;SDS011;2065;49.790;9.620;2023-02-11T11:56:54;30.77;;;16.23;;
4102;SDS011;2065;49.790;9.620;2023-02-11T11:59:25;35.50;;;16.37;;
4102;SDS011;2065;49.790;9.620;2023-02-11T12:01:58;28.07;;;16.77;;
4102;SDS011;2065;49.790;9.620;2023-02-11T12:04:40;27.50;;;15.50;;
4102;SDS011;2065;49.790;9.620;2023-02-11T12:07:24;27.87;;;15.43;;
4102;SDS011;2065;49.790;9.620;2023-02-11T12:12:50;26.47;;;15.90;;
4102;SDS011;2065;49.790;9.620;2023-02-11T12:15:26;28.47;;;16.70;;
4102;SDS011;2065;49.790;9.620;2023-02-11T12:18:14;36.17;;;17.60;;
4102;SDS011;2065;49.790;9.620;2023-02-11T12:20:59;26.97;;;14.67;;
4102;SDS011;2065;49.790;9.620;2023-02-11T12:23:40;30.63;;;15.40;;
4102;SDS011;2065;49.790;9.620;2023-02-11T12:26:19;29.90;;;15.60;;
4102;SDS011;2065;49.790;9.620;2023-02-11T12:28:56;35.20;;;15.33;;
4102;SDS011;2065;49.790;9.620;2023-02-11T12:31:33;34.80;;;17.50;;
4102;SDS011;2065;49.790;9.620;2023-02-11T12:37:03;29.47;;;15.23;;
4102;SDS011;2065;49.790;9.620;2023-02-11T12:39:43;28.87;;;15.63;;
4102;SDS011;2065;49.790;9.620;2023-02-11T12:45:43;26.30;;;14.47;;
4102;SDS011;2065;49.790;9.620;2023-02-11T12:48:38;24.90;;;15.03;;
4102;SDS011;2065;49.790;9.620;2023-02-11T12:51:29;32.73;;;15.03;;
4102;SDS011;2065;49.790;9.620;2023-02-11T12:54:16;29.00;;;15.07;;
4102;SDS011;2065;49.790;9.620;2023-02-11T12:56:49;27.50;;;13.90;;
4102;SDS011;2065;49.790;9.620;2023-02-11T12:59:28;23.43;;;13.67;;
4102;SDS011;2065;49.790;9.620;2023-02-11T13:02:02;28.07;;;14.70;;
4102;SDS011;2065;49.790;9.620;2023-02-11T13:04:32;27.87;;;15.00;;
4102;SDS011;2065;49.790;9.620;2023-02-11T13:07:03;33.33;;;15.60;;
4102;SDS011;2065;49.790;9.620;2023-02-11T13:09:37;25.13;;;15.10;;
4102;SDS011;2065;49.790;9.620;2023-02-11T13:12:12;27.30;;;14.30;;
4102;SDS011;2065;49.790;9.620;2023-02-11T13:14:58;24.03;;;15.37;;
4102;SDS011;2065;49.790;9.620;2023-02-11T13:17:29;28.43;;;16.00;;
4102;SDS011;2065;49.790;9.620;2023-02-11T13:20:04;27.50;;;14.30;;
4102;SDS011;2065;49.790;9.620;2023-02-11T13:22:40;26.43;;;13.83;;
4102;SDS011;2065;49.790;9.620;2023-02-11T13:25:15;24.20;;;15.33;;
4102;SDS011;2065;49.790;9.620;2023-02-11T13:27:52;29.73;;;15.60;;
4102;SDS011;2065;49.790;9.620;2023-02-11T13:30:25;34.20;;;20.47;;
4102;SDS011;2065;49.790;9.620;2023-02-11T13:33:04;29.83;;;16.73;;
4102;SDS011;2065;49.790;9.620;2023-02-11T13:35:44;24.30;;;13.93;;
4102;SDS011;2065;49.790;9.620;2023-02-11T13:38:35;31.00;;;13.40;;
4102;SDS011;2065;49.790;9.620;2023-02-11T13:41:04;25.97;;;13.47;;
4102;SDS011;2065;49.790;9.620;2023-02-11T13:43:34;25.67;;;13.70;;
4102;SDS011;2065;49.790;9.620;2023-02-11T13:46:02;25.30;;;14.27;;
4102;SDS011;2065;49.790;9.620;2023-02-11T13:48:31;22.07;;;13.07;;
4102;SDS011;2065;49.790;9.620;2023-02-11T13:51:02;26.83;;;14.20;;
4102;SDS011;2065;49.790;9.620;2023-02-11T13:53:40;26.13;;;16.00;;
4102;SDS011;2065;49.790;9.620;2023-02-11T13:56:12;22.57;;;13.20;;
4102;SDS011;2065;49.790;9.620;2023-02-11T13:58:55;20.00;;;12.27;;
4102;SDS011;2065;49.790;9.620;2023-02-11T14:01:37;24.80;;;14.80;;
4102;SDS011;2065;49.790;9.620;2023-02-11T14:04:17;23.50;;;14.77;;
4102;SDS011;2065;49.790;9.620;2023-02-11T14:13:22;29.83;;;15.60;;
4102;SDS011;2065;49.790;9.620;2023-02-11T14:16:03;36.63;;;18.20;;
4102;SDS011;2065;49.790;9.620;2023-02-11T14:18:36;34.17;;;17.17;;
4102;SDS011;2065;49.790;9.620;2023-02-11T14:21:09;29.80;;;15.60;;
4102;SDS011;2065;49.790;9.620;2023-02-11T14:23:38;31.73;;;15.53;;
4102;SDS011;2065;49.790;9.620;2023-02-11T14:26:11;23.87;;;14.40;;
4102;SDS011;2065;49.790;9.620;2023-02-11T14:29:01;27.93;;;15.73;;
4102;SDS011;2065;49.790;9.620;2023-02-11T14:31:40;39.13;;;16.73;;
4102;SDS011;2065;49.790;9.620;2023-02-11T14:34:18;27.33;;;15.50;;
4102;SDS011;2065;49.790;9.620;2023-02-11T14:37:02;31.67;;;15.40;;
4102;SDS011;2065;49.790;9.620;2023-02-11T14:39:46;31.07;;;17.03;;
4102;SDS011;2065;49.790;9.620;2023-02-11T14:42:23;31.47;;;17.13;;
4102;SDS011;2065;49.790;9.620;2023-02-11T14:44:54;24.33;;;15.20;;
4102;SDS011;2065;49.790;9.620;2023-02-11T14:47:26;28.33;;;15.10;;
4102;SDS011;2065;49.790;9.620;2023-02-11T14:50:00;29.30;;;13.67;;
4102;SDS011;2065;49.790;9.620;2023-02-11T14:52:28;27.00;;;14.23;;
4102;SDS011;2065;49.790;9.620;2023-02-11T14:55:00;29.50;;;15.30;;
4102;SDS011;2065;49.790;9.620;2023-02-11T14:57:37;31.17;;;18.83;;
4102;SDS011;2065;49.790;9.620;2023-02-11T15:00:13;28.23;;;17.03;;
4102;SDS011;2065;49.790;9.620;2023-02-11T15:02:45;26.30;;;15.17;;
4102;SDS011;2065;49.790;9.620;2023-02-11T15:05:13;41.70;;;20.73;;
4102;SDS011;2065;49.790;9.620;2023-02-11T15:07:45;43.03;;;23.33;;
4102;SDS011;2065;49.790;9.620;2023-02-11T15:10:18;28.67;;;16.13;;
4102;SDS011;2065;49.790;9.620;2023-02-11T15:12:52;33.57;;;15.97;;
4102;SDS011;2065;49.790;9.620;2023-02-11T15:15:19;26.17;;;14.33;;
4102;SDS011;2065;49.790;9.620;2023-02-11T15:17:48;29.93;;;16.43;;
4102;SDS011;2065;49.790;9.620;2023-02-11T15:20:17;27.87;;;17.43;;
4102;SDS011;2065;49.790;9.620;2023-02-11T15:22:47;35.83;;;17.53;;
4102;SDS011;2065;49.790;9.620;2023-02-11T15:25:22;30.07;;;15.53;;
4102;SDS011;2065;49.790;9.620;2023-02-11T15:27:53;37.43;;;25.20;;
4102;SDS011;2065;49.790;9.620;2023-02-11T15:30:30;34.40;;;24.50;;
4102;SDS011;2065;49.790;9.620;2023-02-11T15:33:01;30.50;;;18.47;;
4102;SDS011;2065;49.790;9.620;2023-02-11T15:35:31;35.10;;;19.90;;
4102;SDS011;2065;49.790;9.620;2023-02-11T15:38:01;32.47;;;17.90;;